EAG5504 OBBI-LIMC
Flight info
| Callsign | EAG5504 |
|---|---|
| Flight time | N/A |
| Altitude | 34000 |
| Route | BHR B457 NARMI N697 HIL/N0508F360 T540 ENABI L550 NOVPA N697 MENLI L677 CVO L617 SOBAX M872 NABSI L617 TANSA UL613 AMAXI DCT TRL/N0501F380 DCT VJOSA DCT RODON DCT KOFER DCT SOMIG DCT BAXON DCT VIC/N0437F190 L615 IBUGO/N0431F180 L615 OSKOR/N0437F190 L615 PEXUG |
| Aircraft | B744/H-SDE3FGHIM1M2RWXY/LB1 |
Departure
| Time | N/A |
|---|---|
| Airport | Bahrain International Airport (OBBI) |
Arrival
| Time | 2026-02-21 23:04 |
|---|---|
| Airport | Milan Malpensa International Airport (LIMC) |
| Time | Latitude | Longitude | Altitude | Speed | Heading |
|---|---|---|---|---|---|
| 2026-02-21 21:48 | 41.79865 | 17.10696 | 40116 ft | 458 kts | 313° |
| 2026-02-21 21:48 | 41.82157 | 17.07702 | 40100 ft | 458 kts | 313° |
| 2026-02-21 21:48 | 41.86713 | 17.01738 | 40089 ft | 457 kts | 313° |
| 2026-02-21 21:49 | 41.91265 | 16.95769 | 40088 ft | 457 kts | 313° |
| 2026-02-21 21:49 | 41.95810 | 16.89796 | 40088 ft | 457 kts | 313° |
| 2026-02-21 21:50 | 42.00358 | 16.83807 | 40087 ft | 457 kts | 312° |
| 2026-02-21 21:50 | 42.04898 | 16.77813 | 40106 ft | 455 kts | 313° |
| 2026-02-21 21:51 | 42.09407 | 16.71850 | 40129 ft | 453 kts | 313° |
| 2026-02-21 21:51 | 42.13882 | 16.65919 | 40135 ft | 454 kts | 313° |
| 2026-02-21 21:52 | 42.18381 | 16.59944 | 40141 ft | 453 kts | 313° |
| 2026-02-21 21:52 | 42.22858 | 16.53985 | 40132 ft | 451 kts | 313° |
| 2026-02-21 21:53 | 42.27332 | 16.48019 | 40139 ft | 452 kts | 313° |
| 2026-02-21 21:53 | 42.31817 | 16.42024 | 40133 ft | 453 kts | 313° |
| 2026-02-21 21:54 | 42.36265 | 16.36065 | 40126 ft | 453 kts | 313° |
| 2026-02-21 21:54 | 42.40738 | 16.30062 | 40111 ft | 453 kts | 313° |
| 2026-02-21 21:55 | 42.45205 | 16.24053 | 40115 ft | 453 kts | 313° |
| 2026-02-21 21:55 | 42.49671 | 16.18034 | 40108 ft | 453 kts | 313° |
| 2026-02-21 21:56 | 42.54134 | 16.12005 | 40122 ft | 453 kts | 313° |
| 2026-02-21 21:56 | 42.58594 | 16.05966 | 40122 ft | 453 kts | 313° |
| 2026-02-21 21:57 | 42.63064 | 15.99903 | 40122 ft | 453 kts | 313° |
| 2026-02-21 21:57 | 42.67492 | 15.93882 | 40128 ft | 453 kts | 313° |
| 2026-02-21 21:58 | 42.71948 | 15.87811 | 40120 ft | 453 kts | 313° |
| 2026-02-21 21:58 | 42.76400 | 15.81732 | 40135 ft | 453 kts | 313° |
| 2026-02-21 21:59 | 42.80847 | 15.75647 | 40129 ft | 453 kts | 313° |
| 2026-02-21 21:59 | 42.85299 | 15.69541 | 40126 ft | 453 kts | 313° |
| 2026-02-21 22:00 | 42.89737 | 15.63442 | 40141 ft | 453 kts | 313° |
| 2026-02-21 22:00 | 42.94146 | 15.57370 | 40146 ft | 453 kts | 313° |
| 2026-02-21 22:01 | 42.98578 | 15.51252 | 40144 ft | 453 kts | 313° |
| 2026-02-21 22:01 | 43.02450 | 15.45897 | 40143 ft | 453 kts | 313° |
| 2026-02-21 22:02 | 43.06550 | 15.40215 | 40155 ft | 454 kts | 313° |
| 2026-02-21 22:02 | 43.10984 | 15.34056 | 40166 ft | 454 kts | 313° |
| 2026-02-21 22:03 | 43.15420 | 15.27883 | 40164 ft | 454 kts | 313° |
| 2026-02-21 22:03 | 43.19819 | 15.21747 | 40165 ft | 454 kts | 313° |
| 2026-02-21 22:04 | 43.24245 | 15.15560 | 40166 ft | 454 kts | 313° |
| 2026-02-21 22:04 | 43.28672 | 15.09357 | 40179 ft | 454 kts | 313° |
| 2026-02-21 22:05 | 43.33097 | 15.03144 | 40186 ft | 454 kts | 312° |
| 2026-02-21 22:05 | 43.37510 | 14.96934 | 40197 ft | 454 kts | 312° |
| 2026-02-21 22:06 | 43.41923 | 14.90710 | 40204 ft | 454 kts | 312° |
| 2026-02-21 22:06 | 43.46335 | 14.84474 | 40210 ft | 454 kts | 312° |
| 2026-02-21 22:07 | 43.50708 | 14.78278 | 40212 ft | 454 kts | 312° |
| 2026-02-21 22:07 | 43.55113 | 14.72025 | 40208 ft | 454 kts | 312° |
| 2026-02-21 22:08 | 43.59518 | 14.65757 | 40208 ft | 454 kts | 312° |
| 2026-02-21 22:08 | 43.63902 | 14.59504 | 40207 ft | 453 kts | 312° |
| 2026-02-21 22:09 | 43.68283 | 14.53241 | 40207 ft | 453 kts | 312° |
| 2026-02-21 22:09 | 43.72666 | 14.46962 | 40206 ft | 453 kts | 312° |
| 2026-02-21 22:10 | 43.77009 | 14.40726 | 40208 ft | 453 kts | 312° |
| 2026-02-21 22:10 | 43.81379 | 14.34438 | 40214 ft | 452 kts | 312° |
| 2026-02-21 22:11 | 43.85741 | 14.28148 | 40224 ft | 452 kts | 312° |
| 2026-02-21 22:11 | 43.90099 | 14.21848 | 40221 ft | 452 kts | 312° |
| 2026-02-21 22:12 | 43.94444 | 14.15553 | 40223 ft | 452 kts | 312° |
| 2026-02-21 22:12 | 43.98759 | 14.09285 | 40298 ft | 441 kts | 312° |
| 2026-02-21 22:13 | 44.02954 | 14.03181 | 40305 ft | 437 kts | 313° |
| 2026-02-21 22:13 | 44.07152 | 13.97058 | 40306 ft | 439 kts | 313° |
| 2026-02-21 22:14 | 44.11370 | 13.90894 | 40309 ft | 439 kts | 313° |
| 2026-02-21 22:14 | 44.15590 | 13.84711 | 40297 ft | 441 kts | 313° |
| 2026-02-21 22:15 | 44.19819 | 13.78512 | 40292 ft | 442 kts | 313° |
| 2026-02-21 22:15 | 44.24081 | 13.72299 | 40291 ft | 443 kts | 313° |
| 2026-02-21 22:16 | 44.28315 | 13.66044 | 40296 ft | 443 kts | 313° |
| 2026-02-21 22:16 | 44.32510 | 13.59820 | 40287 ft | 444 kts | 313° |
| 2026-02-21 22:17 | 44.36755 | 13.53509 | 40282 ft | 446 kts | 313° |
| 2026-02-21 22:17 | 44.41011 | 13.47182 | 40281 ft | 446 kts | 313° |
| 2026-02-21 22:18 | 44.45313 | 13.40957 | 40284 ft | 445 kts | 314° |
| 2026-02-21 22:18 | 44.49667 | 13.34793 | 40283 ft | 446 kts | 314° |
| 2026-02-21 22:19 | 44.54014 | 13.28591 | 40285 ft | 449 kts | 314° |
| 2026-02-21 22:19 | 44.58380 | 13.22336 | 40283 ft | 448 kts | 314° |
| 2026-02-21 22:20 | 44.62741 | 13.16068 | 40282 ft | 448 kts | 314° |
| 2026-02-21 22:20 | 44.67107 | 13.09813 | 40291 ft | 448 kts | 314° |
| 2026-02-21 22:21 | 44.71493 | 13.03579 | 40293 ft | 448 kts | 314° |
| 2026-02-21 22:21 | 44.75860 | 12.97316 | 40290 ft | 448 kts | 314° |
| 2026-02-21 22:22 | 44.80189 | 12.91075 | 40290 ft | 448 kts | 314° |
| 2026-02-21 22:22 | 44.84547 | 12.84772 | 40308 ft | 448 kts | 314° |
| 2026-02-21 22:23 | 44.88900 | 12.78459 | 40330 ft | 450 kts | 314° |
| 2026-02-21 22:23 | 44.93277 | 12.72096 | 40327 ft | 452 kts | 313° |
| 2026-02-21 22:24 | 44.97647 | 12.65727 | 40325 ft | 452 kts | 313° |
| 2026-02-21 22:24 | 45.02014 | 12.59346 | 40346 ft | 450 kts | 314° |
| 2026-02-21 22:25 | 45.06323 | 12.53038 | 40348 ft | 449 kts | 314° |
| 2026-02-21 22:25 | 45.10657 | 12.46678 | 40348 ft | 449 kts | 314° |
| 2026-02-21 22:26 | 45.14998 | 12.40291 | 40348 ft | 450 kts | 314° |
| 2026-02-21 22:26 | 45.19341 | 12.33887 | 40348 ft | 450 kts | 314° |
| 2026-02-21 22:27 | 45.23675 | 12.27482 | 40348 ft | 450 kts | 314° |
| 2026-02-21 22:27 | 45.28015 | 12.21052 | 40348 ft | 451 kts | 314° |
| 2026-02-21 22:28 | 45.32348 | 12.14618 | 40348 ft | 450 kts | 314° |
| 2026-02-21 22:28 | 45.36673 | 12.08181 | 40348 ft | 449 kts | 314° |
| 2026-02-21 22:29 | 45.40952 | 12.01796 | 40348 ft | 448 kts | 314° |
| 2026-02-21 22:29 | 45.45278 | 11.95395 | 40348 ft | 449 kts | 314° |
| 2026-02-21 22:30 | 45.49589 | 11.88930 | 40348 ft | 449 kts | 313° |
| 2026-02-21 22:30 | 45.53152 | 11.83555 | 40348 ft | 448 kts | 313° |
| 2026-02-21 22:31 | 45.57432 | 11.77087 | 40348 ft | 448 kts | 313° |
| 2026-02-21 22:31 | 45.61547 | 11.70408 | 40336 ft | 448 kts | 302° |
| 2026-02-21 22:32 | 45.62770 | 11.66314 | 40356 ft | 451 kts | 287° |
| 2026-02-21 22:32 | 45.63566 | 11.61984 | 40350 ft | 453 kts | 286° |
| 2026-02-21 22:32 | 45.64046 | 11.52999 | 40349 ft | 459 kts | 272° |
| 2026-02-21 22:33 | 45.64001 | 11.43867 | 40348 ft | 459 kts | 274° |
| 2026-02-21 22:33 | 45.64153 | 11.34774 | 40348 ft | 457 kts | 275° |
| 2026-02-21 22:34 | 45.64243 | 11.25691 | 40140 ft | 456 kts | 274° |
| 2026-02-21 22:34 | 45.64276 | 11.21211 | 39970 ft | 445 kts | 274° |
| 2026-02-21 22:34 | 45.64306 | 11.16817 | 39487 ft | 440 kts | 274° |
| 2026-02-21 22:35 | 45.64334 | 11.12428 | 38649 ft | 442 kts | 274° |
| 2026-02-21 22:35 | 45.64363 | 11.08022 | 37743 ft | 445 kts | 274° |
| 2026-02-21 22:35 | 45.64393 | 11.03607 | 37162 ft | 441 kts | 275° |
| 2026-02-21 22:35 | 45.64436 | 10.99275 | 36792 ft | 432 kts | 276° |
| 2026-02-21 22:36 | 45.64485 | 10.95009 | 36289 ft | 426 kts | 276° |
| 2026-02-21 22:36 | 45.64523 | 10.90850 | 35794 ft | 421 kts | 276° |
| 2026-02-21 22:36 | 45.64560 | 10.86690 | 35322 ft | 416 kts | 276° |
| 2026-02-21 22:36 | 45.64594 | 10.82567 | 34805 ft | 411 kts | 276° |
| 2026-02-21 22:37 | 45.64640 | 10.78500 | 34297 ft | 407 kts | 277° |
| 2026-02-21 22:37 | 45.64688 | 10.74482 | 33801 ft | 402 kts | 277° |
| 2026-02-21 22:37 | 45.64727 | 10.70505 | 33302 ft | 398 kts | 277° |
| 2026-02-21 22:37 | 45.64765 | 10.66557 | 32799 ft | 395 kts | 278° |
| 2026-02-21 22:38 | 45.64801 | 10.62664 | 32303 ft | 391 kts | 278° |
| 2026-02-21 22:38 | 45.64811 | 10.58789 | 31805 ft | 388 kts | 278° |
| 2026-02-21 22:38 | 45.64805 | 10.54946 | 31308 ft | 385 kts | 278° |
| 2026-02-21 22:38 | 45.64801 | 10.51181 | 30821 ft | 381 kts | 278° |
| 2026-02-21 22:39 | 45.64800 | 10.47400 | 30200 ft | 381 kts | 279° |
| 2026-02-21 22:39 | 45.64800 | 10.43580 | 29457 ft | 385 kts | 279° |
| 2026-02-21 22:39 | 45.64812 | 10.39760 | 28980 ft | 381 kts | 280° |
| 2026-02-21 22:39 | 45.64842 | 10.36004 | 28568 ft | 376 kts | 281° |
| 2026-02-21 22:40 | 45.64860 | 10.32284 | 28026 ft | 375 kts | 281° |
| 2026-02-21 22:40 | 45.64871 | 10.28544 | 27432 ft | 375 kts | 281° |
| 2026-02-21 22:40 | 45.64878 | 10.24824 | 26970 ft | 371 kts | 282° |
| 2026-02-21 22:40 | 45.64884 | 10.21161 | 26501 ft | 367 kts | 282° |
| 2026-02-21 22:41 | 45.64890 | 10.17519 | 26031 ft | 364 kts | 283° |
| 2026-02-21 22:41 | 45.64896 | 10.13963 | 25565 ft | 360 kts | 284° |
| 2026-02-21 22:41 | 45.64905 | 10.10402 | 25095 ft | 357 kts | 284° |
| 2026-02-21 22:41 | 45.64936 | 10.06868 | 24627 ft | 354 kts | 285° |
| 2026-02-21 22:42 | 45.64957 | 10.03366 | 24158 ft | 352 kts | 285° |
| 2026-02-21 22:42 | 45.64978 | 9.96409 | 23229 ft | 347 kts | 286° |
| 2026-02-21 22:42 | 45.64984 | 9.92977 | 22779 ft | 344 kts | 285° |
| 2026-02-21 22:43 | 45.64988 | 9.89617 | 22345 ft | 341 kts | 285° |
| 2026-02-21 22:43 | 45.64991 | 9.86226 | 21903 ft | 338 kts | 285° |
| 2026-02-21 22:43 | 45.64995 | 9.82876 | 21471 ft | 335 kts | 285° |
| 2026-02-21 22:43 | 45.64999 | 9.79574 | 21043 ft | 332 kts | 284° |
| 2026-02-21 22:44 | 45.65002 | 9.76268 | 20612 ft | 329 kts | 284° |
| 2026-02-21 22:44 | 45.65064 | 9.73029 | 20189 ft | 324 kts | 286° |
| 2026-02-21 22:44 | 45.65149 | 9.69824 | 19766 ft | 321 kts | 285° |
| 2026-02-21 22:44 | 45.65220 | 9.66685 | 19355 ft | 319 kts | 285° |
| 2026-02-21 22:45 | 45.65289 | 9.63480 | 18929 ft | 316 kts | 284° |
| 2026-02-21 22:45 | 45.65335 | 9.60377 | 18525 ft | 315 kts | 283° |
| 2026-02-21 22:45 | 45.65344 | 9.57253 | 18114 ft | 313 kts | 282° |
| 2026-02-21 22:45 | 45.65343 | 9.54147 | 17706 ft | 311 kts | 282° |
| 2026-02-21 22:46 | 45.65341 | 9.51068 | 17300 ft | 309 kts | 282° |
| 2026-02-21 22:46 | 45.65340 | 9.48008 | 16896 ft | 307 kts | 281° |
| 2026-02-21 22:46 | 45.65338 | 9.44978 | 16497 ft | 305 kts | 281° |
| 2026-02-21 22:46 | 45.65336 | 9.41963 | 16153 ft | 300 kts | 281° |
| 2026-02-21 22:47 | 45.65336 | 9.39033 | 16036 ft | 287 kts | 281° |
| 2026-02-21 22:47 | 45.65335 | 9.36273 | 15936 ft | 277 kts | 282° |
| 2026-02-21 22:47 | 45.65339 | 9.33432 | 15729 ft | 297 kts | 281° |
| 2026-02-21 22:47 | 45.65366 | 9.30392 | 15318 ft | 312 kts | 281° |
| 2026-02-21 22:48 | 45.65387 | 9.27293 | 15042 ft | 307 kts | 280° |
| 2026-02-21 22:48 | 45.65402 | 9.24294 | 14736 ft | 298 kts | 280° |
| 2026-02-21 22:48 | 45.65413 | 9.21331 | 14167 ft | 298 kts | 280° |
| 2026-02-21 22:48 | 45.65423 | 9.18421 | 13603 ft | 299 kts | 279° |
| 2026-02-21 22:49 | 45.65433 | 9.15457 | 13260 ft | 291 kts | 280° |
| 2026-02-21 22:49 | 45.65442 | 9.12620 | 12876 ft | 285 kts | 280° |
| 2026-02-21 22:49 | 45.65451 | 9.09819 | 12510 ft | 279 kts | 280° |
| 2026-02-21 22:49 | 45.65463 | 9.07075 | 12155 ft | 274 kts | 280° |
| 2026-02-21 22:50 | 45.65472 | 9.04253 | 11804 ft | 294 kts | 279° |
| 2026-02-21 22:50 | 45.65479 | 9.01267 | 11405 ft | 303 kts | 278° |
| 2026-02-21 22:50 | 45.65175 | 8.98258 | 11013 ft | 309 kts | 264° |
| 2026-02-21 22:50 | 45.64490 | 8.95362 | 10598 ft | 307 kts | 256° |
| 2026-02-21 22:51 | 45.61975 | 8.90664 | 10138 ft | 301 kts | 216° |
| 2026-02-21 22:51 | 45.60030 | 8.89747 | 10010 ft | 290 kts | 194° |
| 2026-02-21 22:51 | 45.58074 | 8.89163 | 9766 ft | 286 kts | 195° |
| 2026-02-21 22:52 | 45.56110 | 8.88967 | 9281 ft | 289 kts | 178° |
| 2026-02-21 22:52 | 45.54089 | 8.89444 | 8773 ft | 295 kts | 169° |
| 2026-02-21 22:52 | 45.52078 | 8.90091 | 8396 ft | 294 kts | 166° |
| 2026-02-21 22:52 | 45.50117 | 8.90840 | 8052 ft | 288 kts | 163° |
| 2026-02-21 22:53 | 45.48219 | 8.91518 | 7719 ft | 282 kts | 168° |
| 2026-02-21 22:53 | 45.46305 | 8.91998 | 7392 ft | 277 kts | 171° |
| 2026-02-21 22:53 | 45.44427 | 8.92442 | 7077 ft | 271 kts | 170° |
| 2026-02-21 22:53 | 45.42545 | 8.92929 | 6773 ft | 283 kts | 170° |
| 2026-02-21 22:54 | 45.40594 | 8.93452 | 6553 ft | 285 kts | 170° |
| 2026-02-21 22:54 | 45.38660 | 8.93972 | 6345 ft | 277 kts | 170° |
| 2026-02-21 22:54 | 45.36812 | 8.94473 | 6137 ft | 263 kts | 170° |
| 2026-02-21 22:54 | 45.35020 | 8.94955 | 6058 ft | 263 kts | 171° |
| 2026-02-21 22:55 | 45.33217 | 8.94914 | 5977 ft | 260 kts | 197° |
| 2026-02-21 22:55 | 45.31725 | 8.93747 | 5984 ft | 235 kts | 226° |
| 2026-02-21 22:55 | 45.30725 | 8.91998 | 6019 ft | 228 kts | 235° |
| 2026-02-21 22:55 | 45.29887 | 8.90167 | 5667 ft | 215 kts | 249° |
| 2026-02-21 22:56 | 45.29420 | 8.88233 | 5307 ft | 201 kts | 259° |
| 2026-02-21 22:56 | 45.29123 | 8.86375 | 4963 ft | 192 kts | 264° |
| 2026-02-21 22:56 | 45.28955 | 8.84505 | 4646 ft | 184 kts | 276° |
| 2026-02-21 22:56 | 45.29422 | 8.82857 | 4517 ft | 182 kts | 313° |
| 2026-02-21 22:57 | 45.30469 | 8.81899 | 4496 ft | 179 kts | 334° |
| 2026-02-21 22:57 | 45.31631 | 8.81330 | 4495 ft | 175 kts | 342° |
| 2026-02-21 22:57 | 45.32814 | 8.80944 | 4494 ft | 175 kts | 347° |
| 2026-02-21 22:57 | 45.34015 | 8.80628 | 4492 ft | 176 kts | 349° |
| 2026-02-21 22:58 | 45.35220 | 8.80355 | 4491 ft | 176 kts | 351° |
| 2026-02-21 22:58 | 45.36438 | 8.80102 | 4489 ft | 176 kts | 351° |
| 2026-02-21 22:58 | 45.37640 | 8.79863 | 4489 ft | 176 kts | 352° |
| 2026-02-21 22:58 | 45.38857 | 8.79624 | 4489 ft | 176 kts | 352° |
| 2026-02-21 22:59 | 45.40076 | 8.79405 | 4489 ft | 176 kts | 353° |
| 2026-02-21 22:59 | 45.41295 | 8.79191 | 4489 ft | 176 kts | 352° |
| 2026-02-21 22:59 | 45.42506 | 8.78929 | 4485 ft | 176 kts | 350° |
| 2026-02-21 22:59 | 45.43717 | 8.78627 | 4287 ft | 177 kts | 349° |
| 2026-02-21 23:00 | 45.44926 | 8.78309 | 4042 ft | 177 kts | 349° |
| 2026-02-21 23:00 | 45.46143 | 8.77981 | 3801 ft | 178 kts | 349° |
| 2026-02-21 23:00 | 45.47342 | 8.77654 | 3565 ft | 178 kts | 349° |
| 2026-02-21 23:00 | 45.48570 | 8.77286 | 3323 ft | 178 kts | 347° |
| 2026-02-21 23:01 | 45.49756 | 8.76829 | 3105 ft | 179 kts | 344° |
| 2026-02-21 23:01 | 45.50931 | 8.76223 | 2879 ft | 180 kts | 340° |
| 2026-02-21 23:01 | 45.52089 | 8.75556 | 2637 ft | 177 kts | 339° |
| 2026-02-21 23:01 | 45.53185 | 8.74997 | 2419 ft | 159 kts | 344° |
| 2026-02-21 23:02 | 45.54246 | 8.74661 | 2006 ft | 155 kts | 348° |
| 2026-02-21 23:02 | 45.55310 | 8.74403 | 1844 ft | 154 kts | 349° |
| 2026-02-21 23:02 | 45.56366 | 8.74165 | 1802 ft | 153 kts | 348° |
| 2026-02-21 23:02 | 45.57401 | 8.73844 | 1657 ft | 152 kts | 347° |
| 2026-02-21 23:03 | 45.58430 | 8.73562 | 1465 ft | 149 kts | 348° |
| 2026-02-21 23:03 | 45.59444 | 8.73288 | 1166 ft | 148 kts | 347° |
| 2026-02-21 23:03 | 45.60454 | 8.72994 | 953 ft | 147 kts | 348° |
| 2026-02-21 23:03 | 45.61458 | 8.72710 | 808 ft | 146 kts | 349° |
| 2026-02-21 23:04 | 45.62405 | 8.72451 | 781 ft | 121 kts | 351° |
| 2026-02-21 23:04 | 45.62987 | 8.72290 | 781 ft | 52 kts | 343° |
| 2026-02-21 23:04 | 45.63202 | 8.72093 | 780 ft | 18 kts | 319° |
| 2026-02-21 23:04 | 45.63238 | 8.72049 | 780 ft | 5 kts | 319° |
| 2026-02-21 23:05 | 45.63239 | 8.71987 | 780 ft | 9 kts | 210° |
| 2026-02-21 23:05 | 45.63181 | 8.71985 | 780 ft | 8 kts | 169° |
| 2026-02-21 23:05 | 45.63125 | 8.72000 | 780 ft | 8 kts | 169° |
| 2026-02-21 23:05 | 45.63069 | 8.72016 | 780 ft | 10 kts | 169° |
| 2026-02-21 23:06 | 45.62974 | 8.72042 | 780 ft | 18 kts | 169° |
| 2026-02-21 23:06 | 45.62819 | 8.72085 | 780 ft | 27 kts | 169° |
| 2026-02-21 23:06 | 45.62618 | 8.72142 | 780 ft | 31 kts | 168° |
| 2026-02-21 23:06 | 45.62414 | 8.72198 | 780 ft | 28 kts | 173° |
| 2026-02-21 23:07 | 45.62231 | 8.72247 | 780 ft | 25 kts | 168° |
| 2026-02-21 23:07 | 45.62069 | 8.72295 | 780 ft | 23 kts | 171° |
| 2026-02-21 23:07 | 45.61916 | 8.72334 | 780 ft | 22 kts | 169° |
| 2026-02-21 23:07 | 45.61769 | 8.72376 | 780 ft | 21 kts | 168° |
| 2026-02-21 23:08 | 45.61630 | 8.72415 | 780 ft | 20 kts | 169° |
| 2026-02-21 23:08 | 45.61497 | 8.72451 | 780 ft | 19 kts | 169° |
| 2026-02-21 23:08 | 45.61405 | 8.72443 | 780 ft | 8 kts | 256° |
| 2026-02-21 23:08 | 45.61399 | 8.72370 | 780 ft | 7 kts | 260° |
| 2026-02-21 23:09 | 45.61390 | 8.72302 | 780 ft | 7 kts | 257° |
| 2026-02-21 23:09 | 45.61379 | 8.72235 | 780 ft | 7 kts | 257° |
| 2026-02-21 23:09 | 45.61394 | 8.72178 | 780 ft | 7 kts | 333° |
| 2026-02-21 23:09 | 45.61444 | 8.72160 | 780 ft | 7 kts | 348° |
| 2026-02-21 23:10 | 45.61455 | 8.72157 | 780 ft | 7 kts | 348° |
| 2026-02-21 23:10 | 45.61506 | 8.72142 | 780 ft | 8 kts | 348° |
| 2026-02-21 23:10 | 45.61560 | 8.72126 | 780 ft | 8 kts | 346° |
| 2026-02-21 23:10 | 45.61615 | 8.72106 | 780 ft | 8 kts | 349° |
| 2026-02-21 23:11 | 45.61671 | 8.72092 | 780 ft | 8 kts | 349° |
| 2026-02-21 23:11 | 45.61729 | 8.72076 | 780 ft | 9 kts | 349° |
| 2026-02-21 23:11 | 45.61789 | 8.72060 | 780 ft | 9 kts | 349° |
| 2026-02-21 23:11 | 45.61830 | 8.72069 | 780 ft | 6 kts | 64° |
| 2026-02-21 23:12 | 45.61838 | 8.72126 | 780 ft | 6 kts | 79° |
| 2026-02-21 23:12 | 45.61848 | 8.72204 | 780 ft | 11 kts | 94° |
| 2026-02-21 23:12 | 45.61777 | 8.72264 | 780 ft | 15 kts | 169° |
| 2026-02-21 23:12 | 45.61651 | 8.72294 | 780 ft | 22 kts | 166° |
| 2026-02-21 23:13 | 45.61486 | 8.72345 | 780 ft | 21 kts | 168° |
| 2026-02-21 23:13 | 45.61391 | 8.72334 | 780 ft | 7 kts | 241° |
| 2026-02-21 23:13 | 45.61378 | 8.72232 | 780 ft | 13 kts | 267° |
| 2026-02-21 23:13 | 45.61443 | 8.72154 | 780 ft | 14 kts | 348° |
| 2026-02-21 23:14 | 45.61539 | 8.72128 | 780 ft | 10 kts | 349° |
| 2026-02-21 23:14 | 45.61579 | 8.72092 | 780 ft | 6 kts | 261° |
| 2026-02-21 23:14 | 45.61566 | 8.72025 | 780 ft | 8 kts | 257° |
| 2026-02-21 23:14 | 45.61558 | 8.71971 | 780 ft | 3 kts | 258° |
| 2026-02-21 23:15 | 45.61558 | 8.71967 | 780 ft | 0 kts | 258° |